Nearby METAR Reports

 

EGNX - East Midlands, United Kingdom
Distance from station: W 5mi, 8km
Updated: 19/04/2021 06:50
Clear
Clear
 Wind from varies
Wind: varies 2 mph , 4 km/h
Temperature: 2°C
Dew Point: 0°C
Humidity: 87%
Barometer: 1023 hPa
Summary: Clear
Visibility: greater than 7 miles , 10 km
2021/04/19 05:50 EGNX 190550Z VRB02KT CAVOK 02/M00 Q1023
EGBB - Birmingham Airpo, United Kingdom
Distance from station: SW 34mi, 55km
Updated: 19/04/2021 06:50
Clear
Clear
 Wind from N
Wind: N 2 mph , 4 km/h
Temperature: 2°C
Dew Point: -2°C
Humidity: 75%
Barometer: 1022 hPa
Summary: Clear
Visibility: greater than 7 miles , 10 km
2021/04/19 05:50 EGBB 190550Z 35002KT CAVOK 02/M02 Q1022
 
EGXP - Scampton RAF, United Kingdom
Distance from station: NE 41mi, 66km
Updated: 19/04/2021 06:50

 Wind from E
Wind: E 6 mph , 9 km/h
Temperature: 3°C
Wind Chill: 0°C
Dew Point: 3°C
Humidity: 100%
Barometer: 1023 hPa
Visibility: 0 mile , 0 km
2021/04/19 05:50 EGXP 190550Z AUTO 08005KT 0100 // VV/// 03/03 Q1023
EGCN - Doncaster Sheffi, United Kingdom
Distance from station: N 46mi, 74km
Updated: 19/04/2021 06:50
Mist, Mostly cloudy
Mist, Mostly cloudy
 Wind from varies
Wind: varies 2 mph , 4 km/h
Temperature: 0°C
Dew Point: 0°C
Humidity: 100%
Barometer: 1024 hPa
Summary: Mist
Clouds: Mostly cloudy
Visibility: 2 miles , 3 km
Cloud details: Mostly cloudy 91 m
2021/04/19 05:50 EGCN 190550Z VRB02KT 3000 BR BKN003 00/M00 Q1024
 
EGPB - Sumburgh, United Kingdom
Distance from station: N 491mi, 791km
Updated: 19/04/2021 06:50
Clear
Clear
 Wind from S
Wind: S 13 mph , 20 km/h
Temperature: 7°C
Wind Chill: 4°C
Dew Point: 4°C
Humidity: 81%
Barometer: 1021 hPa
Summary: Clear
Visibility: greater than 7 miles , 10 km
2021/04/19 05:50 EGPB 190550Z 17011KT CAVOK 07/04 Q1021
EGPO - Stornoway, United Kingdom
Distance from station: NW 561mi, 903km
Updated: 19/04/2021 06:50
Mostly cloudy
Mostly cloudy
 Wind from S
Wind: S 14 mph , 22 km/h
Temperature: 9°C
Wind Chill: 6°C
Dew Point: 6°C
Humidity: 82%
Barometer: 1018 hPa
Clouds: Mostly cloudy
Visibility: 6 miles , 10 km
Cloud details: Mostly cloudy 549 m
2021/04/19 05:50 EGPO 190550Z 18012KT 9999 BKN018 09/06 Q1018